createdAt,value
2019-05-05T00:01:26.360Z,6.03
2019-05-05T00:04:01.157Z,6.70
2019-05-05T00:06:31.432Z,5.80
2019-05-05T00:09:01.675Z,8.60
2019-05-05T00:11:35.314Z,8.25
2019-05-05T00:14:10.160Z,5.72
2019-05-05T00:16:54.646Z,9.25
2019-05-05T00:19:32.496Z,6.53
2019-05-05T00:21:57.431Z,11.00
2019-05-05T00:24:27.617Z,9.90
2019-05-05T00:26:57.880Z,7.30
2019-05-05T00:29:28.123Z,7.40
2019-05-05T00:31:58.319Z,5.85
2019-05-05T00:34:28.567Z,6.03
2019-05-05T00:36:58.769Z,4.15
2019-05-05T00:39:28.998Z,6.28
2019-05-05T00:41:59.186Z,3.80
2019-05-05T00:44:29.367Z,4.87
2019-05-05T00:47:07.106Z,4.78
2019-05-05T00:49:46.390Z,4.12
2019-05-05T00:52:11.737Z,7.12
2019-05-05T00:54:41.918Z,7.12
2019-05-05T00:57:12.136Z,6.60
2019-05-05T00:59:42.307Z,4.92
2019-05-05T01:02:20.545Z,8.48
2019-05-05T01:05:27.983Z,7.05
2019-05-05T01:07:59.413Z,7.20
2019-05-05T01:10:29.859Z,9.03
2019-05-05T01:13:00.432Z,6.58
2019-05-05T01:15:30.878Z,8.63
2019-05-05T01:18:02.299Z,9.48
2019-05-05T01:20:34.328Z,6.67
2019-05-05T01:23:04.790Z,12.85
2019-05-05T01:25:37.636Z,11.33
2019-05-05T01:28:07.999Z,6.83
2019-05-05T01:30:39.850Z,4.30
2019-05-05T01:33:14.631Z,7.53
2019-05-05T01:35:44.926Z,6.40
2019-05-05T01:38:19.842Z,9.38
2019-05-05T01:40:54.752Z,13.75
2019-05-05T01:43:25.384Z,10.60
2019-05-05T01:45:55.628Z,7.50
2019-05-05T01:48:26.403Z,15.63
2019-05-05T01:50:56.607Z,4.28
2019-05-05T01:53:26.810Z,8.60
2019-05-05T01:55:56.998Z,8.20
2019-05-05T01:58:27.200Z,6.65
2019-05-05T02:00:57.387Z,10.30
2019-05-05T02:05:58.222Z,10.20
2019-05-05T02:08:28.426Z,12.20
2019-05-05T02:10:58.608Z,9.40
2019-05-05T02:13:28.797Z,11.97
2019-05-05T02:15:59.000Z,8.33
2019-05-05T02:18:29.209Z,6.50
2019-05-05T02:21:05.142Z,9.33
2019-05-05T02:23:36.095Z,10.40
2019-05-05T02:26:06.912Z,14.68
2019-05-05T02:28:38.751Z,14.78
2019-05-05T02:31:11.411Z,10.70
2019-05-05T02:33:41.901Z,12.88
2019-05-05T02:36:12.261Z,12.50
2019-05-05T02:38:42.528Z,12.58
2019-05-05T02:41:15.350Z,11.85
2019-05-05T02:43:45.065Z,10.78
2019-05-05T02:46:30.154Z,12.07
2019-05-05T02:49:00.804Z,11.55
2019-05-05T02:51:31.045Z,18.80
2019-05-05T02:54:04.269Z,12.07
2019-05-05T02:56:45.287Z,15.80
2019-05-05T02:59:17.140Z,18.85
2019-05-05T03:01:48.956Z,11.60
2019-05-05T03:04:19.171Z,10.90
2019-05-05T03:06:49.448Z,14.38
2019-05-05T03:09:19.636Z,17.40
2019-05-05T03:11:49.819Z,20.32
2019-05-05T03:14:20.095Z,20.55
2019-05-05T03:16:51.411Z,18.02
2019-05-05T03:19:23.553Z,12.70
2019-05-05T03:21:54.571Z,14.03
2019-05-05T03:24:24.936Z,19.90
2019-05-05T03:26:55.107Z,19.43
2019-05-05T03:29:25.317Z,16.07
2019-05-05T03:31:56.469Z,20.12
2019-05-05T03:34:27.059Z,19.07
2019-05-05T03:36:57.243Z,21.45
2019-05-05T03:39:29.157Z,15.75
2019-05-05T03:45:14.478Z,15.10
2019-05-05T03:47:45.027Z,19.57
2019-05-05T03:50:15.307Z,15.80
2019-05-05T03:52:45.489Z,20.60
2019-05-05T03:55:15.690Z,20.05
2019-05-05T03:57:45.868Z,17.65
2019-05-05T04:00:25.916Z,21.93
2019-05-05T04:03:00.782Z,18.20
2019-05-05T04:05:34.023Z,19.23
2019-05-05T04:08:04.704Z,18.12
2019-05-05T04:10:34.903Z,25.57
2019-05-05T04:13:06.351Z,13.32
2019-05-05T04:15:38.134Z,18.15
2019-05-05T04:18:10.018Z,24.00
2019-05-05T04:20:40.311Z,23.60
2019-05-05T04:23:10.474Z,19.13
2019-05-05T04:25:40.780Z,13.48
2019-05-05T04:28:13.651Z,23.07
2019-05-05T04:30:56.756Z,20.25
2019-05-05T04:33:26.969Z,18.67
2019-05-05T04:35:57.235Z,19.47
2019-05-05T04:38:27.412Z,20.50
2019-05-05T04:40:57.610Z,14.30
2019-05-05T04:43:28.977Z,19.98
2019-05-05T04:45:59.179Z,18.48
2019-05-05T04:48:31.021Z,20.97
2019-05-05T04:51:06.617Z,22.02
2019-05-05T04:53:41.191Z,11.75
2019-05-05T04:56:11.362Z,13.35
2019-05-05T04:58:41.571Z,13.68
2019-05-05T05:01:13.154Z,16.37
2019-05-05T05:03:51.809Z,14.63
2019-05-05T05:06:23.786Z,14.63
2019-05-05T05:08:53.987Z,13.88
2019-05-05T05:11:24.622Z,12.30
2019-05-05T05:13:55.236Z,13.95
2019-05-05T05:16:25.440Z,16.37
2019-05-05T05:18:55.691Z,19.87
2019-05-05T05:21:26.042Z,14.00
2019-05-05T05:24:14.758Z,20.00
2019-05-05T05:26:45.035Z,12.25
2019-05-05T05:29:15.266Z,13.35
2019-05-05T05:31:45.487Z,13.80
2019-05-05T05:34:15.684Z,11.22
2019-05-05T05:36:45.887Z,10.08
2019-05-05T05:42:08.179Z,10.48
2019-05-05T05:44:40.367Z,14.98
2019-05-05T05:47:28.727Z,13.05
2019-05-05T05:50:19.241Z,10.53
2019-05-05T05:52:49.998Z,9.28
2019-05-05T05:55:20.175Z,15.75
2019-05-05T05:57:50.407Z,14.93
2019-05-05T06:00:20.657Z,14.85
2019-05-05T06:02:50.916Z,11.25
2019-05-05T06:07:54.414Z,12.63
2019-05-05T06:10:27.309Z,20.05
2019-05-05T06:12:57.059Z,14.23
2019-05-05T06:15:27.323Z,20.47
2019-05-05T06:17:57.708Z,16.67
2019-05-05T06:20:29.167Z,16.05
2019-05-05T06:22:59.593Z,13.63
2019-05-05T06:25:29.867Z,13.30
2019-05-05T06:28:00.178Z,12.37
2019-05-05T06:30:30.430Z,8.75
2019-05-05T06:33:00.733Z,20.77
2019-05-05T06:35:30.997Z,13.85
2019-05-05T06:38:01.699Z,16.37
2019-05-05T06:40:39.363Z,17.32
2019-05-05T06:43:17.267Z,14.43
2019-05-05T06:45:53.553Z,13.85
2019-05-05T06:48:23.892Z,17.00
2019-05-05T06:50:54.475Z,17.30
2019-05-05T06:53:43.644Z,19.02
2019-05-05T06:56:34.179Z,22.07
2019-05-05T06:59:24.385Z,13.38
2019-05-05T07:02:14.517Z,13.62
2019-05-05T07:05:04.120Z,13.55
2019-05-05T07:07:53.759Z,11.12
2019-05-05T07:14:46.655Z,4.12
2019-05-05T07:17:16.411Z,7.53
2019-05-05T07:19:46.925Z,9.18
2019-05-05T07:24:48.006Z,7.45
2019-05-05T07:27:20.829Z,9.13
2019-05-05T07:29:51.033Z,10.65
2019-05-05T07:32:21.223Z,9.80
2019-05-05T07:35:04.082Z,11.25
2019-05-05T07:37:34.580Z,10.88
2019-05-05T07:40:07.898Z,11.40
2019-05-05T07:42:38.255Z,8.90
2019-05-05T07:45:20.260Z,13.85
2019-05-05T07:47:43.691Z,8.78
2019-05-05T07:50:26.435Z,8.83
2019-05-05T07:52:46.422Z,9.60
2019-05-05T07:55:16.612Z,10.65
2019-05-05T07:57:46.843Z,13.25
2019-05-05T08:00:17.212Z,11.97
2019-05-05T08:02:47.498Z,18.87
2019-05-05T08:05:17.697Z,11.70
2019-05-05T08:07:48.014Z,14.60
2019-05-05T08:10:19.384Z,10.60
2019-05-05T08:12:54.050Z,10.75
2019-05-05T08:15:24.594Z,12.78
2019-05-05T08:18:13.880Z,11.95
2019-05-05T08:20:45.869Z,17.50
2019-05-05T08:23:29.127Z,17.35
2019-05-05T08:26:05.569Z,11.33
2019-05-05T08:28:40.287Z,12.43
2019-05-05T08:31:14.354Z,16.00
2019-05-05T08:33:44.277Z,15.40
2019-05-05T08:36:14.921Z,12.15
2019-05-05T08:38:45.130Z,16.70
2019-05-05T08:41:15.305Z,11.45
2019-05-05T08:46:15.972Z,10.60
2019-05-05T08:48:46.260Z,10.68
2019-05-05T08:51:16.442Z,12.33
2019-05-05T08:53:48.305Z,10.85
2019-05-05T08:56:18.611Z,12.80
2019-05-05T08:58:49.873Z,7.10
2019-05-05T09:01:20.274Z,12.47
2019-05-05T09:03:50.515Z,10.78
2019-05-05T09:06:20.784Z,12.30
2019-05-05T09:08:50.994Z,11.20
2019-05-05T09:11:21.215Z,16.82
2019-05-05T09:13:53.435Z,12.65
2019-05-05T09:16:24.213Z,12.90
2019-05-05T09:19:01.263Z,14.73
2019-05-05T09:21:31.543Z,11.10
2019-05-05T09:24:19.159Z,12.17
2019-05-05T09:26:54.395Z,17.60
2019-05-05T09:29:43.813Z,13.48
2019-05-05T09:32:14.055Z,11.40
2019-05-05T09:34:44.564Z,17.12
2019-05-05T09:37:14.839Z,13.30
2019-05-05T09:39:45.178Z,8.50
2019-05-05T09:42:15.448Z,18.45
2019-05-05T09:44:45.695Z,17.48
2019-05-05T09:47:15.947Z,12.80
2019-05-05T09:49:46.204Z,13.03
2019-05-05T09:52:16.410Z,12.25
2019-05-05T09:54:46.742Z,12.90
2019-05-05T09:57:17.965Z,13.83
2019-05-05T10:02:17.620Z,11.10
2019-05-05T10:04:48.794Z,14.03
2019-05-05T10:07:19.322Z,14.18
2019-05-05T10:09:51.258Z,10.38
2019-05-05T10:12:23.106Z,20.32
2019-05-05T10:14:55.896Z,18.32
2019-05-05T10:17:26.174Z,19.15
2019-05-05T10:19:56.371Z,17.80
2019-05-05T10:22:26.583Z,16.75
2019-05-05T10:25:15.413Z,21.70
2019-05-05T10:27:47.772Z,15.43
2019-05-05T10:30:18.235Z,10.68
2019-05-05T10:32:48.459Z,13.45
2019-05-05T10:35:19.187Z,20.70
2019-05-05T10:37:51.124Z,10.35
2019-05-05T10:40:23.435Z,12.65
2019-05-05T10:42:54.052Z,10.13
2019-05-05T10:45:24.734Z,10.48
2019-05-05T10:47:56.070Z,13.93
2019-05-05T10:50:26.281Z,7.83
2019-05-05T10:52:56.502Z,10.48
2019-05-05T10:55:26.762Z,13.78
2019-05-05T10:57:56.997Z,9.13
2019-05-05T11:00:44.346Z,10.78
2019-05-05T11:03:15.117Z,13.75
2019-05-05T11:05:45.635Z,13.62
2019-05-05T11:08:15.955Z,13.30
2019-05-05T11:10:46.168Z,10.18
2019-05-05T11:13:17.952Z,12.25
2019-05-05T11:16:04.057Z,11.03
2019-05-05T11:18:34.679Z,7.65
2019-05-05T11:23:35.663Z,8.88
2019-05-05T11:26:06.424Z,12.03
2019-05-05T11:28:36.637Z,8.53
2019-05-05T11:31:06.995Z,9.88
2019-05-05T11:33:43.583Z,9.98
2019-05-05T11:36:15.953Z,10.40
2019-05-05T11:38:46.190Z,7.20
2019-05-05T11:41:16.420Z,10.68
2019-05-05T11:44:00.412Z,11.80
2019-05-05T11:46:30.635Z,9.58
2019-05-05T11:49:00.926Z,11.80
2019-05-05T11:51:31.310Z,16.10
2019-05-05T11:54:01.613Z,12.37
2019-05-05T11:56:33.960Z,14.93
2019-05-05T11:59:04.651Z,15.55
2019-05-05T12:01:34.953Z,12.58
2019-05-05T12:04:08.744Z,14.23
2019-05-05T12:06:39.021Z,14.55
2019-05-05T12:09:13.873Z,13.55
2019-05-05T12:11:44.101Z,15.03
2019-05-05T12:14:16.011Z,12.80
2019-05-05T12:16:46.586Z,16.02
2019-05-05T12:19:17.112Z,10.30
2019-05-05T12:21:47.821Z,15.53
2019-05-05T12:24:20.871Z,10.10
2019-05-05T12:26:54.252Z,12.70
2019-05-05T12:29:25.396Z,12.60
2019-05-05T12:31:57.358Z,10.10
2019-05-05T12:34:28.734Z,5.87
2019-05-05T12:37:00.699Z,14.05
2019-05-05T12:39:33.617Z,10.20
2019-05-05T12:42:05.313Z,9.53
2019-05-05T12:44:54.600Z,9.55
2019-05-05T12:47:30.427Z,5.97
2019-05-05T12:50:01.000Z,7.60
2019-05-05T12:52:33.551Z,8.55
2019-05-05T12:55:05.637Z,6.00
2019-05-05T12:57:36.192Z,8.40
2019-05-05T13:00:07.716Z,6.60
2019-05-05T13:02:38.664Z,6.28
2019-05-05T13:05:09.638Z,6.15
2019-05-05T13:07:40.750Z,5.80
2019-05-05T13:10:13.777Z,9.45
2019-05-05T13:12:45.847Z,11.08
2019-05-05T13:15:17.740Z,7.28
2019-05-05T13:20:37.176Z,5.83
2019-05-05T13:23:09.667Z,8.83
2019-05-05T13:25:58.542Z,5.42
2019-05-05T13:28:27.034Z,6.58
2019-05-05T13:30:57.600Z,5.80
2019-05-05T13:33:28.473Z,6.17
2019-05-05T13:35:59.272Z,5.03
2019-05-05T13:38:29.892Z,5.47
2019-05-05T13:41:00.861Z,4.78
2019-05-05T13:43:31.135Z,5.73
2019-05-05T13:46:09.559Z,9.40
2019-05-05T13:48:39.791Z,8.85
2019-05-05T13:51:15.648Z,7.83
2019-05-05T13:53:46.012Z,5.50
2019-05-05T13:56:16.190Z,3.67
2019-05-05T13:58:46.859Z,6.28
2019-05-05T14:01:35.459Z,9.03
2019-05-05T14:04:05.826Z,4.30
2019-05-05T14:06:36.090Z,5.30
2019-05-05T14:09:06.560Z,4.00
2019-05-05T14:11:38.330Z,2.70
2019-05-05T14:14:09.877Z,3.55
2019-05-05T14:16:58.547Z,5.33
2019-05-05T14:19:28.815Z,4.47
2019-05-05T14:21:59.009Z,5.08
2019-05-05T14:24:30.852Z,3.45
2019-05-05T14:27:01.384Z,10.45
2019-05-05T14:29:36.648Z,8.73
2019-05-05T14:32:08.500Z,6.70
2019-05-05T14:34:54.637Z,4.60
2019-05-05T14:37:34.064Z,4.87
2019-05-05T14:40:06.430Z,7.55
2019-05-05T14:42:36.693Z,7.95
2019-05-05T14:45:06.899Z,7.55
2019-05-05T14:47:37.086Z,8.43
2019-05-05T14:50:07.596Z,7.12
2019-05-05T14:52:38.944Z,8.50
2019-05-05T14:55:09.767Z,10.23
2019-05-05T14:57:39.951Z,11.40
2019-05-05T15:00:13.660Z,9.03
2019-05-05T15:03:03.645Z,10.13
2019-05-05T15:05:54.762Z,9.78
2019-05-05T15:08:35.747Z,9.65
2019-05-05T15:11:07.631Z,13.45
2019-05-05T15:13:37.887Z,12.50
2019-05-05T15:16:10.073Z,8.15
2019-05-05T15:18:40.275Z,10.20
2019-05-05T15:21:10.469Z,10.30
2019-05-05T15:23:40.754Z,6.72
2019-05-05T15:26:12.591Z,6.33
2019-05-05T15:28:45.226Z,8.20
2019-05-05T15:31:14.811Z,7.53
2019-05-05T15:33:45.054Z,8.08
2019-05-05T15:36:15.238Z,10.13
2019-05-05T15:38:45.473Z,4.90
2019-05-05T15:41:15.736Z,11.12
2019-05-05T15:43:45.980Z,8.13
2019-05-05T15:46:16.221Z,7.30
2019-05-05T15:48:46.471Z,8.33
2019-05-05T15:51:18.575Z,6.05
2019-05-05T15:53:48.783Z,7.87
2019-05-05T15:56:18.974Z,7.15
2019-05-05T15:58:49.186Z,10.68
2019-05-05T16:01:19.415Z,7.92
2019-05-05T16:03:49.614Z,8.35
2019-05-05T16:06:19.802Z,7.17
2019-05-05T16:08:53.871Z,13.85
2019-05-05T16:11:23.418Z,10.88
2019-05-05T16:13:54.496Z,8.85
2019-05-05T16:16:43.705Z,14.78
2019-05-05T16:19:26.380Z,11.75
2019-05-05T16:22:10.363Z,11.97
2019-05-05T16:24:44.490Z,10.45
2019-05-05T16:27:21.806Z,7.12
2019-05-05T16:29:46.023Z,9.63
2019-05-05T16:32:21.747Z,9.85
2019-05-05T16:34:48.315Z,8.73
2019-05-05T16:37:18.515Z,3.98
2019-05-05T16:39:48.697Z,5.90
2019-05-05T16:42:19.948Z,9.18
2019-05-05T16:44:50.129Z,5.15
2019-05-05T16:47:20.571Z,8.63
2019-05-05T16:49:50.773Z,5.37
2019-05-05T16:52:23.960Z,7.65
2019-05-05T16:55:04.375Z,8.35
2019-05-05T16:57:36.540Z,7.75
2019-05-05T17:00:06.207Z,8.10
2019-05-05T17:02:39.067Z,5.28
2019-05-05T17:05:10.706Z,6.37
2019-05-05T17:07:41.060Z,16.37
2019-05-05T17:10:11.314Z,14.00
2019-05-05T17:12:41.846Z,14.58
2019-05-05T17:15:14.642Z,18.12
2019-05-05T17:17:58.652Z,12.80
2019-05-05T17:20:33.696Z,7.80
2019-05-05T17:23:05.659Z,9.03
2019-05-05T17:25:35.843Z,11.60
2019-05-05T17:28:06.051Z,10.48
2019-05-05T17:30:36.241Z,9.15
2019-05-05T17:33:06.450Z,6.60
2019-05-05T17:35:36.683Z,9.08
2019-05-05T17:38:07.964Z,9.53
2019-05-05T17:40:43.363Z,15.13
2019-05-05T17:43:25.088Z,9.45
2019-05-05T17:46:06.946Z,13.45
2019-05-05T17:48:54.019Z,11.60
2019-05-05T17:51:26.197Z,11.28
2019-05-05T17:53:58.188Z,14.45
2019-05-05T17:56:28.378Z,11.22
2019-05-05T17:58:58.582Z,9.15
2019-05-05T18:01:28.759Z,8.55
2019-05-05T18:03:59.931Z,10.98
2019-05-05T18:06:37.620Z,17.90
2019-05-05T18:09:10.519Z,8.95
2019-05-05T18:11:45.416Z,8.50
2019-05-05T18:14:33.528Z,6.67
2019-05-05T18:17:10.320Z,8.85
2019-05-05T18:19:43.607Z,18.02
2019-05-05T18:22:14.224Z,8.78
2019-05-05T18:24:47.551Z,15.10
2019-05-05T18:27:17.843Z,9.13
2019-05-05T18:29:48.339Z,10.53
2019-05-05T18:32:23.484Z,11.40
2019-05-05T18:34:55.353Z,9.08
2019-05-05T18:37:25.682Z,13.58
2019-05-05T18:39:56.045Z,11.83
2019-05-05T18:42:26.346Z,14.33
2019-05-05T18:45:03.677Z,14.90
2019-05-05T18:47:35.736Z,14.33
2019-05-05T18:50:06.932Z,11.20
2019-05-05T18:52:37.194Z,10.72
2019-05-05T18:55:07.488Z,10.05
2019-05-05T18:57:37.776Z,15.65
2019-05-05T19:00:09.679Z,11.90
2019-05-05T19:02:44.298Z,10.90
2019-05-05T19:05:25.565Z,9.38
2019-05-05T19:08:01.184Z,10.20
2019-05-05T19:10:31.398Z,8.53
2019-05-05T19:13:01.714Z,9.23
2019-05-05T19:15:32.064Z,12.15
2019-05-05T19:18:04.351Z,13.20
2019-05-05T19:20:36.470Z,7.35
2019-05-05T19:23:06.718Z,12.47
2019-05-05T19:25:37.008Z,10.38
2019-05-05T19:28:07.263Z,7.58
2019-05-05T19:30:39.112Z,9.85
2019-05-05T19:33:09.342Z,10.78
2019-05-05T19:35:44.070Z,6.97
2019-05-05T19:38:15.560Z,7.47
2019-05-05T19:40:47.416Z,7.92
2019-05-05T19:43:17.680Z,8.25
2019-05-05T19:45:47.900Z,12.37
2019-05-05T19:48:18.087Z,8.05
2019-05-05T19:50:55.745Z,10.28
2019-05-05T19:53:26.772Z,8.65
2019-05-05T19:55:57.047Z,8.20
2019-05-05T19:58:27.241Z,10.90
2019-05-05T20:03:35.273Z,16.15
2019-05-05T20:06:05.870Z,6.47
2019-05-05T20:08:41.829Z,10.15
2019-05-05T20:11:09.646Z,9.48
2019-05-05T20:13:39.826Z,9.35
2019-05-05T20:16:23.856Z,8.58
2019-05-05T20:18:54.677Z,10.20
2019-05-05T20:21:25.111Z,6.67
2019-05-05T20:23:58.270Z,10.30
2019-05-05T20:26:31.286Z,7.37
2019-05-05T20:29:13.629Z,8.63
2019-05-05T20:31:34.596Z,10.35
2019-05-05T20:34:13.536Z,9.53
2019-05-05T20:37:04.366Z,10.40
2019-05-05T20:39:34.483Z,6.33
2019-05-05T20:42:05.038Z,8.20
2019-05-05T20:44:35.383Z,10.08
2019-05-05T20:47:05.568Z,10.78
2019-05-05T20:49:35.907Z,13.80
2019-05-05T20:52:06.091Z,6.70
2019-05-05T20:54:36.295Z,10.93
2019-05-05T20:57:06.475Z,11.18
2019-05-05T20:59:36.674Z,8.00
2019-05-05T21:02:07.015Z,9.67
2019-05-05T21:04:37.225Z,9.75
2019-05-05T21:07:07.412Z,9.65
2019-05-05T21:09:37.646Z,7.97
2019-05-05T21:12:07.823Z,13.03
2019-05-05T21:14:39.001Z,18.23
2019-05-05T21:17:09.205Z,10.48
2019-05-05T21:19:39.483Z,8.70
2019-05-05T21:22:30.392Z,15.18
2019-05-05T21:25:00.659Z,6.95
2019-05-05T21:27:30.862Z,11.78
2019-05-05T21:30:03.886Z,11.73
2019-05-05T21:32:34.042Z,10.20
2019-05-05T21:35:06.213Z,10.78
2019-05-05T21:37:36.434Z,6.53
2019-05-05T21:40:07.283Z,11.53
2019-05-05T21:42:37.526Z,6.80
2019-05-05T21:45:07.763Z,10.00
2019-05-05T21:47:43.780Z,10.48
2019-05-05T21:50:27.583Z,13.50
2019-05-05T21:53:04.468Z,8.35
2019-05-05T21:55:44.537Z,11.60
2019-05-05T21:58:22.365Z,13.78
2019-05-05T22:00:54.622Z,13.30
2019-05-05T22:03:34.565Z,12.82
2019-05-05T22:06:04.959Z,18.15
2019-05-05T22:08:35.825Z,14.00
2019-05-05T22:11:05.996Z,19.17
2019-05-05T22:13:36.687Z,13.93
2019-05-05T22:16:07.062Z,15.98
2019-05-05T22:18:37.263Z,13.13
2019-05-05T22:24:19.251Z,10.17
2019-05-05T22:26:49.433Z,18.55
2019-05-05T22:29:19.750Z,18.27
2019-05-05T22:31:50.034Z,11.57
2019-05-05T22:34:40.951Z,14.00
2019-05-05T22:37:11.131Z,16.67
2019-05-05T22:39:41.335Z,15.55
2019-05-05T22:42:11.528Z,14.33
2019-05-05T22:44:41.787Z,15.72
2019-05-05T22:47:13.787Z,9.88
2019-05-05T22:49:44.335Z,18.92
2019-05-05T22:52:14.724Z,21.75
2019-05-05T22:54:44.931Z,16.73
2019-05-05T22:57:15.472Z,20.25
2019-05-05T22:59:58.324Z,14.33
2019-05-05T23:02:30.327Z,21.73
2019-05-05T23:05:04.081Z,14.40
2019-05-05T23:07:35.096Z,19.92
2019-05-05T23:10:06.883Z,18.20
2019-05-05T23:12:37.850Z,19.35
2019-05-05T23:15:09.706Z,22.22
2019-05-05T23:17:50.829Z,16.60
2019-05-05T23:20:51.122Z,18.50
2019-05-05T23:23:23.984Z,13.90
2019-05-05T23:25:58.379Z,14.58
2019-05-05T23:28:28.587Z,20.65
2019-05-05T23:30:58.754Z,13.38
2019-05-05T23:33:28.967Z,19.82
2019-05-05T23:35:59.212Z,14.30
2019-05-05T23:38:29.805Z,16.27
2019-05-05T23:41:00.055Z,14.33
2019-05-05T23:43:30.263Z,14.33
2019-05-05T23:46:00.446Z,16.48
2019-05-05T23:48:30.903Z,14.40
2019-05-05T23:51:01.083Z,18.32
2019-05-05T23:53:31.283Z,14.93
2019-05-05T23:56:03.856Z,22.10
2019-05-05T23:58:34.789Z,10.75
